createdAt,value
2022-07-29T00:00:01.677Z,18.63
2022-07-29T00:02:29.033Z,18.21
2022-07-29T00:04:56.175Z,17.82
2022-07-29T00:07:23.088Z,17.23
2022-07-29T00:09:52.644Z,17.04
2022-07-29T00:12:25.592Z,16.87
2022-07-29T00:14:54.273Z,16.74
2022-07-29T00:17:21.309Z,16.62
2022-07-29T00:19:48.313Z,16.51
2022-07-29T00:22:15.258Z,16.58
2022-07-29T00:24:42.450Z,16.37
2022-07-29T00:27:10.713Z,16.27
2022-07-29T00:29:37.626Z,16.21
2022-07-29T00:32:04.893Z,16.09
2022-07-29T00:35:10.737Z,16.09
2022-07-29T00:37:37.910Z,16.04
2022-07-29T00:40:05.702Z,16.20
2022-07-29T00:42:43.091Z,16.27
2022-07-29T00:45:10.797Z,16.17
2022-07-29T00:47:37.802Z,15.95
2022-07-29T00:50:06.764Z,15.90
2022-07-29T00:52:34.801Z,15.98
2022-07-29T00:55:08.036Z,15.81
2022-07-29T00:57:37.168Z,15.64
2022-07-29T01:00:09.863Z,15.70
2022-07-29T01:02:37.211Z,15.79
2022-07-29T01:05:06.226Z,15.81
2022-07-29T01:07:34.972Z,15.79
2022-07-29T01:10:03.343Z,15.83
2022-07-29T01:12:35.181Z,15.70
2022-07-29T01:15:07.336Z,15.77
2022-07-29T01:17:39.765Z,15.85
2022-07-29T01:20:31.751Z,15.88
2022-07-29T01:23:22.060Z,15.76
2022-07-29T01:26:32.534Z,15.68
2022-07-29T01:29:13.898Z,15.68
2022-07-29T01:31:59.444Z,15.66
2022-07-29T01:34:36.381Z,15.62
2022-07-29T01:37:10.927Z,15.70
2022-07-29T01:39:39.878Z,15.75
2022-07-29T01:42:13.910Z,15.79
2022-07-29T01:44:49.400Z,15.75
2022-07-29T01:47:21.753Z,15.64
2022-07-29T01:49:52.591Z,15.70
2022-07-29T01:52:24.587Z,15.77
2022-07-29T01:54:56.914Z,15.80
2022-07-29T01:57:29.101Z,15.83
2022-07-29T02:00:00.454Z,15.81
2022-07-29T02:02:29.523Z,15.74
2022-07-29T02:04:58.319Z,15.67
2022-07-29T02:07:29.458Z,15.80
2022-07-29T02:09:58.444Z,15.76
2022-07-29T02:12:26.698Z,15.78
2022-07-29T02:14:55.567Z,15.80
2022-07-29T02:17:27.717Z,15.72
2022-07-29T02:19:59.207Z,15.66
2022-07-29T02:22:28.025Z,15.62
2022-07-29T02:24:56.720Z,15.69
2022-07-29T02:27:24.891Z,15.66
2022-07-29T02:29:54.227Z,15.59
2022-07-29T02:32:25.697Z,15.65
2022-07-29T02:34:53.804Z,15.73
2022-07-29T02:37:22.239Z,15.70
2022-07-29T02:39:52.802Z,15.59
2022-07-29T02:42:22.092Z,15.54
2022-07-29T02:44:49.491Z,15.60
2022-07-29T02:47:21.791Z,15.60
2022-07-29T02:49:59.029Z,15.64
2022-07-29T02:52:32.847Z,15.68
2022-07-29T02:55:03.247Z,15.57
2022-07-29T02:57:35.180Z,15.64
2022-07-29T03:00:09.114Z,15.70
2022-07-29T03:02:39.442Z,15.65
2022-07-29T03:05:10.586Z,15.59
2022-07-29T03:07:39.662Z,15.59
2022-07-29T03:10:11.037Z,15.55
2022-07-29T03:12:42.499Z,15.55
2022-07-29T03:15:10.680Z,15.59
2022-07-29T03:17:39.001Z,15.52
2022-07-29T03:20:08.712Z,15.49
2022-07-29T03:22:44.489Z,15.58
2022-07-29T03:25:12.581Z,15.61
2022-07-29T03:27:39.574Z,15.70
2022-07-29T03:30:08.839Z,15.69
2022-07-29T03:32:36.597Z,15.73
2022-07-29T03:35:04.794Z,15.68
2022-07-29T03:37:34.530Z,15.71
2022-07-29T03:40:04.248Z,15.57
2022-07-29T03:42:34.315Z,15.53
2022-07-29T03:45:06.556Z,15.50
2022-07-29T03:47:43.581Z,15.34
2022-07-29T03:50:20.564Z,15.40
2022-07-29T03:52:49.340Z,15.45
2022-07-29T03:55:16.931Z,15.49
2022-07-29T03:57:46.729Z,15.38
2022-07-29T04:00:14.615Z,15.19
2022-07-29T04:02:42.197Z,15.12
2022-07-29T04:05:13.593Z,15.24
2022-07-29T04:07:40.646Z,15.22
2022-07-29T04:10:10.007Z,15.22
2022-07-29T04:12:37.054Z,15.12
2022-07-29T04:15:04.104Z,15.20
2022-07-29T04:17:31.268Z,15.10
2022-07-29T04:19:58.245Z,15.08
2022-07-29T04:22:25.296Z,15.09
2022-07-29T04:24:54.352Z,15.06
2022-07-29T04:27:22.813Z,14.99
2022-07-29T04:29:57.138Z,15.00
2022-07-29T04:32:24.845Z,14.96
2022-07-29T04:34:51.991Z,14.93
2022-07-29T04:37:18.900Z,14.82
2022-07-29T04:39:45.803Z,14.83
2022-07-29T04:42:12.700Z,14.77
2022-07-29T04:44:43.100Z,14.68
2022-07-29T04:47:10.513Z,14.61
2022-07-29T04:49:39.299Z,14.61
2022-07-29T04:52:07.096Z,14.48
2022-07-29T04:54:34.529Z,14.51
2022-07-29T04:57:01.683Z,14.47
2022-07-29T04:59:28.631Z,14.45
2022-07-29T05:01:57.067Z,14.45
2022-07-29T05:04:24.183Z,14.55
2022-07-29T05:06:51.195Z,14.55
2022-07-29T05:09:18.253Z,14.58
2022-07-29T05:11:45.221Z,14.60
2022-07-29T05:14:12.245Z,14.67
2022-07-29T05:16:41.150Z,14.80
2022-07-29T05:19:13.990Z,14.64
2022-07-29T05:21:41.454Z,14.65
2022-07-29T05:24:09.126Z,14.72
2022-07-29T05:26:36.258Z,14.88
2022-07-29T05:29:03.794Z,14.85
2022-07-29T05:31:30.821Z,14.96
2022-07-29T05:33:57.977Z,14.96
2022-07-29T05:36:26.708Z,15.01
2022-07-29T05:38:53.992Z,15.17
2022-07-29T05:41:21.192Z,15.36
2022-07-29T05:43:48.200Z,15.48
2022-07-29T05:46:15.350Z,15.64
2022-07-29T05:48:42.419Z,15.69
2022-07-29T05:51:09.601Z,15.90
2022-07-29T05:53:38.299Z,16.03
2022-07-29T05:56:06.514Z,16.13
2022-07-29T05:58:33.734Z,16.28
2022-07-29T06:01:01.653Z,16.39
2022-07-29T06:03:29.211Z,16.52
2022-07-29T06:05:56.371Z,16.71
2022-07-29T06:08:23.399Z,16.74
2022-07-29T06:10:51.793Z,16.78
2022-07-29T06:13:18.838Z,16.84
2022-07-29T06:15:45.964Z,16.97
2022-07-29T06:18:14.505Z,17.05
2022-07-29T06:20:41.674Z,16.92
2022-07-29T06:23:08.768Z,17.00
2022-07-29T06:25:37.873Z,17.25
2022-07-29T06:28:07.539Z,17.44
2022-07-29T06:30:34.770Z,17.33
2022-07-29T06:33:03.098Z,17.40
2022-07-29T06:35:39.671Z,17.53
2022-07-29T06:38:25.643Z,17.72
2022-07-29T06:41:07.106Z,17.75
2022-07-29T06:43:42.643Z,17.95
2022-07-29T06:46:21.586Z,17.85
2022-07-29T06:48:49.038Z,18.05
2022-07-29T06:51:17.464Z,18.36
2022-07-29T06:53:59.526Z,18.34
2022-07-29T06:56:30.364Z,18.22
2022-07-29T06:58:58.913Z,18.29
2022-07-29T07:01:26.032Z,18.52
2022-07-29T07:03:53.210Z,18.76
2022-07-29T07:06:20.868Z,19.01
2022-07-29T07:08:47.890Z,19.04
2022-07-29T07:11:14.952Z,19.24
2022-07-29T07:13:42.815Z,19.18
2022-07-29T07:16:11.376Z,19.40
2022-07-29T07:18:38.580Z,19.61
2022-07-29T07:21:06.740Z,19.73
2022-07-29T07:23:34.085Z,19.67
2022-07-29T07:26:01.120Z,19.71
2022-07-29T07:28:28.253Z,19.75
2022-07-29T07:30:55.730Z,19.87
2022-07-29T07:33:26.362Z,20.21
2022-07-29T07:35:53.700Z,20.16
2022-07-29T07:38:21.184Z,20.24
2022-07-29T07:40:48.581Z,20.05
2022-07-29T07:43:15.771Z,20.35
2022-07-29T07:45:43.110Z,20.54
2022-07-29T07:48:11.308Z,20.63
2022-07-29T07:50:40.252Z,20.82
2022-07-29T07:53:07.524Z,20.58
2022-07-29T07:55:53.430Z,20.65
2022-07-29T07:58:22.259Z,20.90
2022-07-29T08:00:49.551Z,21.05
2022-07-29T08:03:17.358Z,21.23
2022-07-29T08:05:48.587Z,21.25
2022-07-29T08:08:15.735Z,21.26
2022-07-29T08:10:56.844Z,21.43
2022-07-29T08:13:26.446Z,21.33
2022-07-29T08:16:00.892Z,21.29
2022-07-29T08:18:29.246Z,21.67
2022-07-29T08:20:58.545Z,21.84
2022-07-29T08:23:32.831Z,21.86
2022-07-29T08:26:14.231Z,21.63
2022-07-29T08:28:46.677Z,21.73
2022-07-29T08:31:14.927Z,21.76
2022-07-29T08:33:42.417Z,21.84
2022-07-29T08:36:11.442Z,22.26
2022-07-29T08:38:38.878Z,22.24
2022-07-29T08:41:06.175Z,22.33
2022-07-29T08:43:36.228Z,22.54
2022-07-29T08:46:03.356Z,22.51
2022-07-29T08:48:30.979Z,22.69
2022-07-29T08:50:58.794Z,23.03
2022-07-29T08:53:29.538Z,23.27
2022-07-29T08:55:57.149Z,23.32
2022-07-29T08:58:25.957Z,23.40
2022-07-29T09:00:56.162Z,22.87
2022-07-29T09:03:26.251Z,23.06
2022-07-29T09:05:54.293Z,23.44
2022-07-29T09:08:22.187Z,23.52
2022-07-29T09:11:29.698Z,23.92
2022-07-29T09:13:58.410Z,24.25
2022-07-29T09:16:44.070Z,23.86
2022-07-29T09:19:22.080Z,23.67
2022-07-29T09:22:03.126Z,23.83
2022-07-29T09:24:42.655Z,23.87
2022-07-29T09:27:21.120Z,24.40
2022-07-29T09:29:57.429Z,24.76
2022-07-29T09:32:25.077Z,24.95
2022-07-29T09:34:56.837Z,24.95
2022-07-29T09:37:29.573Z,25.07
2022-07-29T09:39:56.789Z,24.50
2022-07-29T09:42:29.896Z,24.66
2022-07-29T09:44:58.531Z,24.52
2022-07-29T09:47:42.815Z,24.62
2022-07-29T09:50:09.877Z,24.35
2022-07-29T09:52:48.020Z,24.20
2022-07-29T09:55:18.174Z,24.71
2022-07-29T09:57:46.292Z,25.11
2022-07-29T10:00:16.906Z,25.23
2022-07-29T10:02:45.783Z,25.53
2022-07-29T10:05:22.620Z,25.21
2022-07-29T10:07:53.892Z,25.57
2022-07-29T10:10:27.714Z,-147.88
2022-07-29T10:12:59.735Z,25.57
2022-07-29T10:15:33.354Z,25.86
2022-07-29T10:18:01.489Z,25.82
2022-07-29T10:20:30.615Z,25.43
2022-07-29T10:22:58.277Z,25.64
2022-07-29T10:25:26.185Z,25.88
2022-07-29T10:27:54.671Z,26.35
2022-07-29T10:30:25.164Z,26.46
2022-07-29T10:33:23.566Z,26.06
2022-07-29T10:36:04.317Z,25.96
2022-07-29T10:38:50.223Z,26.31
2022-07-29T10:44:29.173Z,26.92
2022-07-29T10:46:56.882Z,27.34
2022-07-29T10:49:28.090Z,27.07
2022-07-29T10:52:05.825Z,26.73
2022-07-29T10:54:44.689Z,26.98
2022-07-29T10:57:14.622Z,26.95
2022-07-29T10:59:43.001Z,27.36
2022-07-29T11:02:44.750Z,27.82
2022-07-29T11:05:15.888Z,27.52
2022-07-29T11:08:26.486Z,26.76
2022-07-29T11:11:37.905Z,27.38
2022-07-29T11:14:05.396Z,28.39
2022-07-29T11:17:06.115Z,27.37
2022-07-29T11:19:34.841Z,27.02
2022-07-29T11:22:08.821Z,27.84
2022-07-29T11:24:37.115Z,28.22
2022-07-29T11:30:04.975Z,26.80
2022-07-29T11:32:37.933Z,26.34
2022-07-29T11:35:19.333Z,26.12
2022-07-29T11:38:28.804Z,26.40
2022-07-29T11:41:25.520Z,26.89
2022-07-29T11:43:56.737Z,27.86
2022-07-29T11:46:54.097Z,28.21
2022-07-29T11:49:32.197Z,27.79
2022-07-29T11:52:03.156Z,27.64
2022-07-29T11:54:38.717Z,27.06
2022-07-29T11:57:22.483Z,27.87
2022-07-29T11:59:50.791Z,27.38
2022-07-29T12:02:36.507Z,27.45
2022-07-29T12:05:10.674Z,27.24
2022-07-29T12:07:03.261Z,28.24
2022-07-29T12:07:41.275Z,26.79
2022-07-29T12:10:20.001Z,27.48
2022-07-29T12:12:57.214Z,28.53
2022-07-29T12:15:45.595Z,27.91
2022-07-29T12:18:15.247Z,28.69
2022-07-29T12:20:42.548Z,29.35
2022-07-29T12:23:16.232Z,29.32
2022-07-29T12:25:49.713Z,29.10
2022-07-29T12:28:27.649Z,29.04
2022-07-29T12:30:55.163Z,29.18
2022-07-29T12:33:24.113Z,28.82
2022-07-29T12:36:06.251Z,28.48
2022-07-29T12:38:35.799Z,29.21
2022-07-29T12:41:04.891Z,29.17
2022-07-29T12:43:32.854Z,29.73
2022-07-29T12:46:13.590Z,29.32
2022-07-29T12:48:42.280Z,29.37
2022-07-29T12:51:11.136Z,29.53
2022-07-29T12:53:38.960Z,29.77
2022-07-29T12:56:40.590Z,29.40
2022-07-29T12:59:14.455Z,29.46
2022-07-29T13:01:41.590Z,28.85
2022-07-29T13:04:08.664Z,28.23
2022-07-29T13:06:39.201Z,27.73
2022-07-29T13:09:11.730Z,27.53
2022-07-29T13:11:47.913Z,26.91
2022-07-29T13:14:30.771Z,26.76
2022-07-29T13:17:06.307Z,26.56
2022-07-29T13:19:35.891Z,26.36
2022-07-29T13:22:03.000Z,26.16
2022-07-29T13:24:30.145Z,26.01
2022-07-29T13:26:58.669Z,25.90
2022-07-29T13:29:31.340Z,25.92
2022-07-29T13:31:59.485Z,25.95
2022-07-29T13:34:27.134Z,25.82
2022-07-29T13:36:55.390Z,25.54
2022-07-29T13:39:22.555Z,25.52
2022-07-29T13:41:49.611Z,25.49
2022-07-29T13:44:19.577Z,25.32
2022-07-29T13:46:46.586Z,25.21
2022-07-29T13:49:14.227Z,25.17
2022-07-29T13:51:42.313Z,25.07
2022-07-29T13:54:09.243Z,24.95
2022-07-29T13:56:36.352Z,24.91
2022-07-29T13:59:03.314Z,24.89
2022-07-29T14:01:32.018Z,24.80
2022-07-29T14:03:59.758Z,24.54
2022-07-29T14:06:28.158Z,24.37
2022-07-29T14:08:57.157Z,24.10
2022-07-29T14:11:24.522Z,23.88
2022-07-29T14:13:52.320Z,23.29
2022-07-29T14:16:19.584Z,-147.88
2022-07-29T14:18:48.363Z,22.80
2022-07-29T14:21:16.174Z,22.58
2022-07-29T14:23:43.835Z,22.58
2022-07-29T14:26:20.822Z,21.66
2022-07-29T14:28:49.297Z,-147.88
2022-07-29T14:31:16.784Z,20.91
2022-07-29T14:33:44.091Z,20.91
2022-07-29T14:36:15.483Z,20.32
2022-07-29T14:38:42.770Z,20.18
2022-07-29T14:41:09.904Z,20.15
2022-07-29T14:43:38.001Z,20.09
2022-07-29T14:46:08.564Z,20.00
2022-07-29T14:48:37.277Z,19.99
2022-07-29T14:51:05.903Z,19.94
2022-07-29T14:53:35.395Z,19.98
2022-07-29T14:56:21.174Z,19.98
2022-07-29T14:58:52.142Z,20.19
2022-07-29T15:01:20.691Z,20.38
2022-07-29T15:03:48.601Z,-147.88
2022-07-29T15:06:16.271Z,-147.88
2022-07-29T15:08:45.062Z,-147.88
2022-07-29T15:11:12.264Z,-147.88
2022-07-29T15:13:40.086Z,-147.88
2022-07-29T15:16:09.751Z,-147.88
2022-07-29T15:18:39.932Z,-147.88
2022-07-29T15:21:08.817Z,-147.88
2022-07-29T15:23:37.486Z,-147.88
2022-07-29T15:26:06.827Z,-147.88
2022-07-29T15:28:34.624Z,-147.88
2022-07-29T15:31:02.496Z,-147.88
2022-07-29T15:33:29.976Z,-147.88
2022-07-29T15:35:58.047Z,-147.88
2022-07-29T15:38:29.008Z,-147.88
2022-07-29T15:40:56.447Z,-147.88
2022-07-29T15:43:25.242Z,-147.88
2022-07-29T15:46:12.447Z,-147.88
2022-07-29T15:48:41.038Z,-147.88
2022-07-29T15:51:08.629Z,-147.88
2022-07-29T15:53:35.849Z,-147.88
2022-07-29T15:56:03.291Z,-147.88
2022-07-29T15:58:32.918Z,-147.88
2022-07-29T16:01:00.379Z,-147.88
2022-07-29T16:03:28.156Z,-147.88
2022-07-29T16:05:55.390Z,-147.88
2022-07-29T16:08:22.844Z,-147.88
2022-07-29T16:10:50.327Z,-147.88
2022-07-29T16:13:18.859Z,-147.88
2022-07-29T16:16:02.784Z,-147.88
2022-07-29T16:18:30.730Z,-147.88
2022-07-29T16:20:58.556Z,-147.88
2022-07-29T16:23:25.824Z,-147.88
2022-07-29T16:26:01.278Z,-147.88
2022-07-29T16:28:29.383Z,-147.88
2022-07-29T16:30:58.041Z,-147.88
2022-07-29T16:33:25.412Z,-147.88
2022-07-29T16:35:53.259Z,-147.88
2022-07-29T16:38:21.259Z,-147.88
2022-07-29T16:40:49.373Z,-147.88
2022-07-29T16:43:17.127Z,-147.88
2022-07-29T16:45:46.418Z,-147.88
2022-07-29T16:48:18.069Z,-147.88
2022-07-29T16:50:46.425Z,-147.88
2022-07-29T16:53:14.410Z,-147.88
2022-07-29T16:55:42.792Z,-147.88
2022-07-29T16:58:10.616Z,-147.88
2022-07-29T17:00:39.252Z,-147.88
2022-07-29T17:03:07.908Z,-147.88
2022-07-29T17:05:52.077Z,-147.88
2022-07-29T17:08:22.919Z,-147.88
2022-07-29T17:10:50.140Z,-147.88
2022-07-29T17:13:17.158Z,-147.88
2022-07-29T17:15:44.297Z,-147.88
2022-07-29T17:18:12.347Z,-147.88
2022-07-29T17:20:41.774Z,-147.88
2022-07-29T17:23:09.143Z,-147.88
2022-07-29T17:25:36.508Z,-147.88
2022-07-29T17:28:03.822Z,-147.88
2022-07-29T17:30:30.984Z,-147.88
2022-07-29T17:32:58.112Z,-147.88
2022-07-29T17:35:43.817Z,-147.88
2022-07-29T17:38:12.347Z,-147.88
2022-07-29T17:40:39.525Z,-147.88
2022-07-29T17:43:09.270Z,-147.88
2022-07-29T17:45:49.643Z,-147.88
2022-07-29T17:48:18.060Z,-147.88
2022-07-29T17:50:46.287Z,-147.88
2022-07-29T17:53:16.882Z,-147.88
2022-07-29T17:55:45.494Z,-147.88
2022-07-29T17:58:12.871Z,-147.88
2022-07-29T18:00:40.156Z,-147.88
2022-07-29T18:03:07.387Z,-147.88
2022-07-29T18:05:35.095Z,-147.88
2022-07-29T18:08:02.272Z,-147.88
2022-07-29T18:10:30.822Z,-147.88
2022-07-29T18:12:58.007Z,-147.88
2022-07-29T18:15:25.151Z,-147.88
2022-07-29T18:17:57.362Z,-147.88
2022-07-29T18:20:25.307Z,-147.88
2022-07-29T18:22:52.817Z,-147.88
2022-07-29T18:25:19.993Z,-147.88
2022-07-29T18:27:48.327Z,-147.88
2022-07-29T18:30:15.597Z,-147.88
2022-07-29T18:32:59.078Z,-147.88
2022-07-29T18:35:30.913Z,-147.88
2022-07-29T18:38:01.346Z,-147.88
2022-07-29T18:40:29.917Z,-147.88
2022-07-29T18:42:58.405Z,-147.88
2022-07-29T18:45:28.310Z,-147.88
2022-07-29T18:47:55.818Z,-147.88
2022-07-29T18:50:28.871Z,-147.88
2022-07-29T18:52:58.517Z,-147.88
2022-07-29T18:55:26.339Z,-147.88
2022-07-29T18:57:55.997Z,-147.88
2022-07-29T19:00:27.102Z,-147.88
2022-07-29T19:02:54.355Z,-147.88
2022-07-29T19:05:23.108Z,-147.88
2022-07-29T19:07:50.395Z,-147.88
2022-07-29T19:10:17.810Z,-147.88
2022-07-29T19:12:44.886Z,-147.88
2022-07-29T19:15:12.088Z,-147.88
2022-07-29T19:17:41.151Z,-147.88
2022-07-29T19:20:08.916Z,-147.88
2022-07-29T19:22:36.043Z,-147.88
2022-07-29T19:25:03.468Z,-147.88
2022-07-29T19:27:30.619Z,-147.88
2022-07-29T19:29:59.473Z,-147.88
2022-07-29T19:32:26.844Z,-147.88
2022-07-29T19:35:15.575Z,-147.88
2022-07-29T19:37:43.052Z,-147.88
2022-07-29T19:40:12.317Z,-147.88
2022-07-29T19:42:39.495Z,-147.88
2022-07-29T19:45:07.651Z,-147.88
2022-07-29T19:47:35.268Z,-147.88
2022-07-29T19:50:04.294Z,-147.88
2022-07-29T19:52:31.488Z,-147.88
2022-07-29T19:54:58.797Z,-147.88
2022-07-29T19:57:26.295Z,-147.88
2022-07-29T19:59:54.312Z,-147.88
2022-07-29T20:02:21.638Z,-147.88
2022-07-29T20:04:48.814Z,-147.88
2022-07-29T20:07:17.305Z,-147.88
2022-07-29T20:09:46.251Z,-147.88
2022-07-29T20:12:13.577Z,-147.88
2022-07-29T20:14:41.109Z,-147.88
2022-07-29T20:17:08.474Z,-147.88
2022-07-29T20:19:36.236Z,-147.88
2022-07-29T20:22:03.597Z,-147.88
2022-07-29T20:24:32.050Z,-147.88
2022-07-29T20:26:59.289Z,-147.88
2022-07-29T20:29:26.512Z,-147.88
2022-07-29T20:31:56.577Z,-147.88
2022-07-29T20:34:25.073Z,-147.88
2022-07-29T20:36:53.274Z,-147.88
2022-07-29T20:39:21.823Z,-147.88
2022-07-29T20:41:50.817Z,-147.88
2022-07-29T20:44:19.785Z,-147.88
2022-07-29T20:46:48.863Z,-147.88
2022-07-29T20:49:16.281Z,-147.88
2022-07-29T20:51:44.181Z,-147.88
2022-07-29T20:54:11.997Z,-147.88
2022-07-29T20:56:39.234Z,-147.88
2022-07-29T20:59:07.961Z,-147.88
2022-07-29T21:01:35.460Z,-147.88
2022-07-29T21:04:03.220Z,-147.88
2022-07-29T21:06:30.829Z,-147.88
2022-07-29T21:08:59.798Z,-147.88
2022-07-29T21:11:43.458Z,-147.88
2022-07-29T21:14:30.807Z,-147.88
2022-07-29T21:17:07.536Z,-147.88
2022-07-29T21:19:34.727Z,-147.88
2022-07-29T21:22:01.867Z,-147.88
2022-07-29T21:24:29.303Z,-147.88
2022-07-29T21:27:21.172Z,-147.88
2022-07-29T21:29:50.249Z,-147.88
2022-07-29T21:32:29.940Z,-147.88
2022-07-29T21:34:57.793Z,-147.88
2022-07-29T21:37:25.031Z,-147.88
2022-07-29T21:39:52.138Z,-147.88
2022-07-29T21:42:19.944Z,-147.88
2022-07-29T21:44:47.315Z,-147.88
2022-07-29T21:47:16.015Z,-147.88
2022-07-29T21:49:43.146Z,-147.88
2022-07-29T21:52:10.322Z,-147.88
2022-07-29T21:54:38.605Z,-147.88
2022-07-29T21:57:06.081Z,-147.88
2022-07-29T21:59:33.189Z,-147.88
2022-07-29T22:02:01.851Z,-147.88
2022-07-29T22:04:30.637Z,-147.88
2022-07-29T22:06:58.488Z,-147.88
2022-07-29T22:09:25.917Z,-147.88
2022-07-29T22:11:53.070Z,-147.88
2022-07-29T22:14:20.469Z,-147.88
2022-07-29T22:16:48.349Z,-147.88
2022-07-29T22:19:15.653Z,-147.88
2022-07-29T22:21:44.946Z,-147.88
2022-07-29T22:24:12.296Z,-147.88
2022-07-29T22:26:40.436Z,-147.88
2022-07-29T22:29:07.839Z,-147.88
2022-07-29T22:31:34.853Z,-147.88
2022-07-29T22:34:01.776Z,-147.88
2022-07-29T22:36:28.791Z,-147.88
2022-07-29T22:38:57.169Z,-147.88
2022-07-29T22:41:24.210Z,-147.88
2022-07-29T22:43:51.131Z,-147.88
2022-07-29T22:46:18.272Z,-147.88
2022-07-29T22:48:45.323Z,-147.88
2022-07-29T22:51:12.297Z,-147.88
2022-07-29T22:53:39.347Z,-147.88
2022-07-29T22:56:07.864Z,-147.88
2022-07-29T22:58:34.991Z,-147.88
2022-07-29T23:01:02.103Z,-147.88
2022-07-29T23:03:29.152Z,-147.88
2022-07-29T23:05:56.159Z,-147.88
2022-07-29T23:08:23.111Z,-147.88
2022-07-29T23:10:50.029Z,-147.88
2022-07-29T23:13:18.385Z,-147.88
2022-07-29T23:15:45.369Z,-147.88
2022-07-29T23:18:12.495Z,-147.88
2022-07-29T23:20:39.611Z,-147.88
2022-07-29T23:23:06.567Z,-147.88
2022-07-29T23:25:37.610Z,-147.88
2022-07-29T23:28:05.246Z,-147.88
2022-07-29T23:30:33.694Z,-147.88
2022-07-29T23:33:05.650Z,-147.88
2022-07-29T23:35:32.862Z,-147.88
2022-07-29T23:38:07.116Z,-147.88
2022-07-29T23:40:39.177Z,-147.88
2022-07-29T23:43:08.657Z,-147.88
2022-07-29T23:45:42.565Z,-147.88
2022-07-29T23:48:11.536Z,-147.88
2022-07-29T23:50:40.175Z,-147.88
2022-07-29T23:53:07.297Z,-147.88
2022-07-29T23:55:36.501Z,-147.88
2022-07-29T23:58:05.980Z,-147.88
